sensor_id;sensor_type;location;lat;lon;timestamp;temperature;humidity
15286;DHT22;7744;52.172;10.668;2023-06-22T00:00:54;18.60;89.30
15286;DHT22;7744;52.172;10.668;2023-06-22T00:03:21;18.60;59.10
15286;DHT22;7744;52.172;10.668;2023-06-22T00:05:48;18.60;80.90
15286;DHT22;7744;52.172;10.668;2023-06-22T00:08:14;18.60;1.00
15286;DHT22;7744;52.172;10.668;2023-06-22T00:10:40;18.60;1.00
15286;DHT22;7744;52.172;10.668;2023-06-22T00:13:07;18.60;1.00
15286;DHT22;7744;52.172;10.668;2023-06-22T00:15:33;18.60;1.00
15286;DHT22;7744;52.172;10.668;2023-06-22T00:17:59;18.70;1.00
15286;DHT22;7744;52.172;10.668;2023-06-22T00:20:26;18.60;1.00
15286;DHT22;7744;52.172;10.668;2023-06-22T00:22:56;18.60;1.00
15286;DHT22;7744;52.172;10.668;2023-06-22T00:25:22;18.60;1.00
15286;DHT22;7744;52.172;10.668;2023-06-22T00:27:52;18.60;1.00
15286;DHT22;7744;52.172;10.668;2023-06-22T00:30:19;18.60;1.00
15286;DHT22;7744;52.172;10.668;2023-06-22T00:32:45;18.60;1.00
15286;DHT22;7744;52.172;10.668;2023-06-22T00:35:12;18.50;1.00
15286;DHT22;7744;52.172;10.668;2023-06-22T00:37:38;18.50;1.00
15286;DHT22;7744;52.172;10.668;2023-06-22T00:40:08;18.40;1.00
15286;DHT22;7744;52.172;10.668;2023-06-22T00:42:36;18.40;1.00
15286;DHT22;7744;52.172;10.668;2023-06-22T00:45:02;18.40;99.90
15286;DHT22;7744;52.172;10.668;2023-06-22T00:47:28;18.40;99.90
15286;DHT22;7744;52.172;10.668;2023-06-22T00:49:54;18.40;99.90
15286;DHT22;7744;52.172;10.668;2023-06-22T00:52:21;18.40;99.90
15286;DHT22;7744;52.172;10.668;2023-06-22T00:54:52;18.50;33.00
15286;DHT22;7744;52.172;10.668;2023-06-22T00:57:19;18.40;84.20
15286;DHT22;7744;52.172;10.668;2023-06-22T00:59:46;18.50;99.90
15286;DHT22;7744;52.172;10.668;2023-06-22T01:02:13;18.30;73.60
15286;DHT22;7744;52.172;10.668;2023-06-22T01:04:39;18.20;98.00
15286;DHT22;7744;52.172;10.668;2023-06-22T01:10:07;18.20;99.90
15286;DHT22;7744;52.172;10.668;2023-06-22T01:12:41;18.20;99.90
15286;DHT22;7744;52.172;10.668;2023-06-22T01:15:13;18.10;99.90
15286;DHT22;7744;52.172;10.668;2023-06-22T01:17:42;18.10;99.90
15286;DHT22;7744;52.172;10.668;2023-06-22T01:20:09;17.90;91.10
15286;DHT22;7744;52.172;10.668;2023-06-22T01:25:59;17.70;99.90
15286;DHT22;7744;52.172;10.668;2023-06-22T01:31:10;17.70;99.90
15286;DHT22;7744;52.172;10.668;2023-06-22T01:33:39;17.70;99.90
15286;DHT22;7744;52.172;10.668;2023-06-22T01:36:05;17.90;99.90
15286;DHT22;7744;52.172;10.668;2023-06-22T01:38:33;17.80;99.70
15286;DHT22;7744;52.172;10.668;2023-06-22T01:41:00;17.90;99.90
15286;DHT22;7744;52.172;10.668;2023-06-22T01:43:27;17.80;99.90
15286;DHT22;7744;52.172;10.668;2023-06-22T01:45:54;17.80;12.30
15286;DHT22;7744;52.172;10.668;2023-06-22T01:48:21;17.80;1.00
15286;DHT22;7744;52.172;10.668;2023-06-22T01:50:47;17.80;1.00
15286;DHT22;7744;52.172;10.668;2023-06-22T01:53:13;17.80;4.00
15286;DHT22;7744;52.172;10.668;2023-06-22T01:55:39;17.70;1.00
15286;DHT22;7744;52.172;10.668;2023-06-22T01:58:05;17.70;1.00
15286;DHT22;7744;52.172;10.668;2023-06-22T02:00:37;17.70;1.00
15286;DHT22;7744;52.172;10.668;2023-06-22T02:03:30;17.60;99.90
15286;DHT22;7744;52.172;10.668;2023-06-22T02:06:03;17.60;99.90
15286;DHT22;7744;52.172;10.668;2023-06-22T02:08:34;17.60;99.90
15286;DHT22;7744;52.172;10.668;2023-06-22T02:11:02;17.50;8.50
15286;DHT22;7744;52.172;10.668;2023-06-22T02:13:28;17.50;92.80
15286;DHT22;7744;52.172;10.668;2023-06-22T02:15:54;17.40;99.90
15286;DHT22;7744;52.172;10.668;2023-06-22T02:18:20;17.40;99.90
15286;DHT22;7744;52.172;10.668;2023-06-22T02:20:46;17.50;99.90
15286;DHT22;7744;52.172;10.668;2023-06-22T02:23:11;17.30;99.90
15286;DHT22;7744;52.172;10.668;2023-06-22T02:25:37;17.40;99.90
15286;DHT22;7744;52.172;10.668;2023-06-22T02:28:03;17.40;99.90
15286;DHT22;7744;52.172;10.668;2023-06-22T02:30:29;17.40;99.90
15286;DHT22;7744;52.172;10.668;2023-06-22T02:32:54;17.50;99.90
15286;DHT22;7744;52.172;10.668;2023-06-22T02:35:26;17.40;99.90
15286;DHT22;7744;52.172;10.668;2023-06-22T02:37:51;17.40;99.90
15286;DHT22;7744;52.172;10.668;2023-06-22T02:40:17;17.50;99.90
15286;DHT22;7744;52.172;10.668;2023-06-22T02:42:43;17.50;99.90
15286;DHT22;7744;52.172;10.668;2023-06-22T02:45:09;17.50;99.90
15286;DHT22;7744;52.172;10.668;2023-06-22T02:47:34;17.60;99.90
15286;DHT22;7744;52.172;10.668;2023-06-22T02:50:00;17.60;99.90
15286;DHT22;7744;52.172;10.668;2023-06-22T02:52:26;17.70;99.90
15286;DHT22;7744;52.172;10.668;2023-06-22T02:54:52;17.60;99.90
15286;DHT22;7744;52.172;10.668;2023-06-22T02:57:17;17.70;99.90
15286;DHT22;7744;52.172;10.668;2023-06-22T02:59:43;17.60;99.90
15286;DHT22;7744;52.172;10.668;2023-06-22T03:02:09;17.70;99.90
15286;DHT22;7744;52.172;10.668;2023-06-22T03:04:35;17.70;99.90
15286;DHT22;7744;52.172;10.668;2023-06-22T03:07:01;17.70;99.90
15286;DHT22;7744;52.172;10.668;2023-06-22T03:09:28;17.70;99.90
15286;DHT22;7744;52.172;10.668;2023-06-22T03:11:54;18.00;99.90
15286;DHT22;7744;52.172;10.668;2023-06-22T03:14:20;17.80;91.60
15286;DHT22;7744;52.172;10.668;2023-06-22T03:16:46;17.80;39.40
15286;DHT22;7744;52.172;10.668;2023-06-22T03:19:11;17.80;15.90
15286;DHT22;7744;52.172;10.668;2023-06-22T03:21:37;17.80;18.60
15286;DHT22;7744;52.172;10.668;2023-06-22T03:24:07;17.80;16.10
15286;DHT22;7744;52.172;10.668;2023-06-22T03:26:34;17.90;51.60
15286;DHT22;7744;52.172;10.668;2023-06-22T03:29:00;17.90;1.00
15286;DHT22;7744;52.172;10.668;2023-06-22T03:31:25;18.10;1.00
15286;DHT22;7744;52.172;10.668;2023-06-22T03:33:51;18.10;50.90
15286;DHT22;7744;52.172;10.668;2023-06-22T03:36:17;18.20;1.00
15286;DHT22;7744;52.172;10.668;2023-06-22T03:38:48;18.20;1.00
15286;DHT22;7744;52.172;10.668;2023-06-22T03:41:13;18.30;1.00
15286;DHT22;7744;52.172;10.668;2023-06-22T03:43:39;18.30;1.00
15286;DHT22;7744;52.172;10.668;2023-06-22T03:46:05;18.40;1.00
15286;DHT22;7744;52.172;10.668;2023-06-22T03:48:31;18.40;1.00
15286;DHT22;7744;52.172;10.668;2023-06-22T03:50:58;18.40;1.00
15286;DHT22;7744;52.172;10.668;2023-06-22T03:53:24;18.60;1.00
15286;DHT22;7744;52.172;10.668;2023-06-22T03:55:51;18.60;1.00
15286;DHT22;7744;52.172;10.668;2023-06-22T03:58:18;18.60;1.00
15286;DHT22;7744;52.172;10.668;2023-06-22T04:00:48;18.60;1.00
15286;DHT22;7744;52.172;10.668;2023-06-22T04:03:14;18.60;1.00
15286;DHT22;7744;52.172;10.668;2023-06-22T04:05:40;18.60;1.00
15286;DHT22;7744;52.172;10.668;2023-06-22T04:08:06;18.50;1.00
15286;DHT22;7744;52.172;10.668;2023-06-22T04:10:32;18.50;1.00
15286;DHT22;7744;52.172;10.668;2023-06-22T04:12:57;18.50;1.00
15286;DHT22;7744;52.172;10.668;2023-06-22T04:15:23;18.60;1.00
15286;DHT22;7744;52.172;10.668;2023-06-22T04:17:49;18.80;1.00
15286;DHT22;7744;52.172;10.668;2023-06-22T04:20:14;18.80;1.00
15286;DHT22;7744;52.172;10.668;2023-06-22T04:22:40;18.80;1.00
15286;DHT22;7744;52.172;10.668;2023-06-22T04:25:06;19.00;1.00
15286;DHT22;7744;52.172;10.668;2023-06-22T04:27:33;19.20;1.00
15286;DHT22;7744;52.172;10.668;2023-06-22T04:30:03;19.30;1.00
15286;DHT22;7744;52.172;10.668;2023-06-22T04:32:29;19.50;1.00
15286;DHT22;7744;52.172;10.668;2023-06-22T04:34:55;19.80;99.90
15286;DHT22;7744;52.172;10.668;2023-06-22T04:37:20;20.00;99.90
15286;DHT22;7744;52.172;10.668;2023-06-22T04:39:49;20.20;1.00
15286;DHT22;7744;52.172;10.668;2023-06-22T04:42:15;20.50;99.90
15286;DHT22;7744;52.172;10.668;2023-06-22T04:44:41;20.70;99.90
15286;DHT22;7744;52.172;10.668;2023-06-22T04:47:07;20.90;99.90
15286;DHT22;7744;52.172;10.668;2023-06-22T04:49:37;21.10;99.90
15286;DHT22;7744;52.172;10.668;2023-06-22T04:52:03;21.10;99.90
15286;DHT22;7744;52.172;10.668;2023-06-22T04:54:29;21.10;99.90
15286;DHT22;7744;52.172;10.668;2023-06-22T04:56:54;21.40;99.90
15286;DHT22;7744;52.172;10.668;2023-06-22T04:59:24;21.50;99.90
15286;DHT22;7744;52.172;10.668;2023-06-22T05:01:56;21.60;99.90
15286;DHT22;7744;52.172;10.668;2023-06-22T05:04:24;21.50;99.90
15286;DHT22;7744;52.172;10.668;2023-06-22T05:06:50;21.50;99.90
15286;DHT22;7744;52.172;10.668;2023-06-22T05:09:16;21.30;99.90
15286;DHT22;7744;52.172;10.668;2023-06-22T05:11:43;21.10;99.90
15286;DHT22;7744;52.172;10.668;2023-06-22T05:14:08;21.00;1.00
15286;DHT22;7744;52.172;10.668;2023-06-22T05:16:34;20.90;99.90
15286;DHT22;7744;52.172;10.668;2023-06-22T05:19:00;20.90;99.90
15286;DHT22;7744;52.172;10.668;2023-06-22T05:21:28;20.80;99.90
15286;DHT22;7744;52.172;10.668;2023-06-22T05:23:54;20.70;99.90
15286;DHT22;7744;52.172;10.668;2023-06-22T05:26:21;20.80;99.90
15286;DHT22;7744;52.172;10.668;2023-06-22T05:28:47;20.80;99.90
15286;DHT22;7744;52.172;10.668;2023-06-22T05:31:14;20.80;99.90
15286;DHT22;7744;52.172;10.668;2023-06-22T05:33:42;20.80;99.90
15286;DHT22;7744;52.172;10.668;2023-06-22T05:36:08;20.80;99.90
15286;DHT22;7744;52.172;10.668;2023-06-22T05:38:35;20.90;99.90
15286;DHT22;7744;52.172;10.668;2023-06-22T05:41:01;20.90;99.90
15286;DHT22;7744;52.172;10.668;2023-06-22T05:43:27;20.90;99.90
15286;DHT22;7744;52.172;10.668;2023-06-22T05:45:53;20.80;99.90
15286;DHT22;7744;52.172;10.668;2023-06-22T05:48:18;20.80;99.90
15286;DHT22;7744;52.172;10.668;2023-06-22T05:50:44;20.80;99.90
15286;DHT22;7744;52.172;10.668;2023-06-22T05:53:09;20.80;99.90
15286;DHT22;7744;52.172;10.668;2023-06-22T05:55:46;20.90;99.90
15286;DHT22;7744;52.172;10.668;2023-06-22T05:58:15;20.90;99.90
15286;DHT22;7744;52.172;10.668;2023-06-22T06:00:41;20.80;99.90
15286;DHT22;7744;52.172;10.668;2023-06-22T06:03:08;20.80;99.90
15286;DHT22;7744;52.172;10.668;2023-06-22T06:05:34;20.90;99.90
15286;DHT22;7744;52.172;10.668;2023-06-22T06:08:01;21.00;99.90
15286;DHT22;7744;52.172;10.668;2023-06-22T06:10:28;20.90;99.90
15286;DHT22;7744;52.172;10.668;2023-06-22T06:13:02;21.00;99.90
15286;DHT22;7744;52.172;10.668;2023-06-22T06:15:34;21.00;99.90
15286;DHT22;7744;52.172;10.668;2023-06-22T06:18:00;21.00;99.90
15286;DHT22;7744;52.172;10.668;2023-06-22T06:20:27;21.00;99.90
15286;DHT22;7744;52.172;10.668;2023-06-22T06:23:19;21.10;99.90
15286;DHT22;7744;52.172;10.668;2023-06-22T06:25:44;21.00;99.90
15286;DHT22;7744;52.172;10.668;2023-06-22T06:28:10;21.10;99.90
15286;DHT22;7744;52.172;10.668;2023-06-22T06:30:36;21.10;99.90
15286;DHT22;7744;52.172;10.668;2023-06-22T06:33:02;21.20;99.90
15286;DHT22;7744;52.172;10.668;2023-06-22T06:35:30;21.10;99.90
15286;DHT22;7744;52.172;10.668;2023-06-22T06:38:03;21.10;99.90
15286;DHT22;7744;52.172;10.668;2023-06-22T06:40:28;21.10;99.90
15286;DHT22;7744;52.172;10.668;2023-06-22T06:42:54;21.10;1.00
15286;DHT22;7744;52.172;10.668;2023-06-22T06:45:21;21.10;1.00
15286;DHT22;7744;52.172;10.668;2023-06-22T06:47:48;21.10;1.00
15286;DHT22;7744;52.172;10.668;2023-06-22T06:50:31;21.00;1.00
15286;DHT22;7744;52.172;10.668;2023-06-22T06:53:01;21.00;1.00
15286;DHT22;7744;52.172;10.668;2023-06-22T06:55:27;21.10;1.00
15286;DHT22;7744;52.172;10.668;2023-06-22T06:57:54;21.20;1.00
15286;DHT22;7744;52.172;10.668;2023-06-22T07:00:20;21.20;1.00
15286;DHT22;7744;52.172;10.668;2023-06-22T07:02:46;21.30;1.00
15286;DHT22;7744;52.172;10.668;2023-06-22T07:05:13;21.40;1.00
15286;DHT22;7744;52.172;10.668;2023-06-22T07:07:39;21.60;1.00
15286;DHT22;7744;52.172;10.668;2023-06-22T07:10:07;21.90;99.90
15286;DHT22;7744;52.172;10.668;2023-06-22T07:12:33;21.90;99.90
15286;DHT22;7744;52.172;10.668;2023-06-22T07:15:07;22.10;1.00
15286;DHT22;7744;52.172;10.668;2023-06-22T07:17:36;22.20;1.00
15286;DHT22;7744;52.172;10.668;2023-06-22T07:20:02;22.30;99.90
15286;DHT22;7744;52.172;10.668;2023-06-22T07:22:33;22.30;99.90
15286;DHT22;7744;52.172;10.668;2023-06-22T07:24:58;22.50;99.90
15286;DHT22;7744;52.172;10.668;2023-06-22T07:27:24;22.50;99.90
15286;DHT22;7744;52.172;10.668;2023-06-22T07:29:50;22.60;99.90
15286;DHT22;7744;52.172;10.668;2023-06-22T07:32:16;22.80;99.90
15286;DHT22;7744;52.172;10.668;2023-06-22T07:34:41;23.00;99.90
15286;DHT22;7744;52.172;10.668;2023-06-22T07:37:07;23.20;99.90
15286;DHT22;7744;52.172;10.668;2023-06-22T07:39:33;23.30;99.90
15286;DHT22;7744;52.172;10.668;2023-06-22T07:41:58;23.40;99.90
15286;DHT22;7744;52.172;10.668;2023-06-22T07:44:24;23.60;99.90
15286;DHT22;7744;52.172;10.668;2023-06-22T07:46:49;23.50;99.90
15286;DHT22;7744;52.172;10.668;2023-06-22T07:49:16;23.50;23.30
15286;DHT22;7744;52.172;10.668;2023-06-22T07:51:42;23.60;24.30
15286;DHT22;7744;52.172;10.668;2023-06-22T07:54:09;23.90;24.20
15286;DHT22;7744;52.172;10.668;2023-06-22T07:56:36;24.20;5.90
15286;DHT22;7744;52.172;10.668;2023-06-22T07:59:02;24.00;1.00
15286;DHT22;7744;52.172;10.668;2023-06-22T08:01:29;24.10;1.00
15286;DHT22;7744;52.172;10.668;2023-06-22T08:03:56;24.40;1.00
15286;DHT22;7744;52.172;10.668;2023-06-22T08:06:22;24.20;1.00
15286;DHT22;7744;52.172;10.668;2023-06-22T08:08:47;24.30;1.00
15286;DHT22;7744;52.172;10.668;2023-06-22T08:11:14;24.70;1.00
15286;DHT22;7744;52.172;10.668;2023-06-22T08:13:40;24.90;1.00
15286;DHT22;7744;52.172;10.668;2023-06-22T08:16:06;25.10;1.00
15286;DHT22;7744;52.172;10.668;2023-06-22T08:18:33;25.40;1.00
15286;DHT22;7744;52.172;10.668;2023-06-22T08:20:58;25.30;1.00
15286;DHT22;7744;52.172;10.668;2023-06-22T08:23:24;25.20;1.00
15286;DHT22;7744;52.172;10.668;2023-06-22T08:29:28;25.80;1.00
15286;DHT22;7744;52.172;10.668;2023-06-22T08:38:03;26.10;1.00
15286;DHT22;7744;52.172;10.668;2023-06-22T08:40:29;26.00;1.00
15286;DHT22;7744;52.172;10.668;2023-06-22T08:42:55;26.30;1.00
15286;DHT22;7744;52.172;10.668;2023-06-22T08:45:21;26.20;1.00
15286;DHT22;7744;52.172;10.668;2023-06-22T08:47:46;26.00;1.00
15286;DHT22;7744;52.172;10.668;2023-06-22T08:50:12;26.00;1.00
15286;DHT22;7744;52.172;10.668;2023-06-22T08:52:39;26.00;1.00
15286;DHT22;7744;52.172;10.668;2023-06-22T08:55:09;26.20;1.00
15286;DHT22;7744;52.172;10.668;2023-06-22T08:57:36;26.10;1.00
15286;DHT22;7744;52.172;10.668;2023-06-22T09:00:06;26.10;1.00
15286;DHT22;7744;52.172;10.668;2023-06-22T09:02:37;26.00;1.00
15286;DHT22;7744;52.172;10.668;2023-06-22T09:05:03;26.00;1.00
15286;DHT22;7744;52.172;10.668;2023-06-22T09:07:28;26.20;1.00
15286;DHT22;7744;52.172;10.668;2023-06-22T09:09:55;26.20;1.00
15286;DHT22;7744;52.172;10.668;2023-06-22T09:12:20;26.40;1.00
15286;DHT22;7744;52.172;10.668;2023-06-22T09:14:49;26.40;1.00
15286;DHT22;7744;52.172;10.668;2023-06-22T09:17:15;26.10;1.00
15286;DHT22;7744;52.172;10.668;2023-06-22T09:19:41;26.10;1.00
15286;DHT22;7744;52.172;10.668;2023-06-22T09:22:06;26.10;1.00
15286;DHT22;7744;52.172;10.668;2023-06-22T09:24:32;25.80;1.00
15286;DHT22;7744;52.172;10.668;2023-06-22T09:26:58;25.80;1.00
15286;DHT22;7744;52.172;10.668;2023-06-22T09:29:24;26.20;1.00
15286;DHT22;7744;52.172;10.668;2023-06-22T09:31:50;26.50;1.00
15286;DHT22;7744;52.172;10.668;2023-06-22T09:34:18;26.90;1.00
15286;DHT22;7744;52.172;10.668;2023-06-22T09:36:49;27.00;1.00
15286;DHT22;7744;52.172;10.668;2023-06-22T09:39:15;26.80;1.00
15286;DHT22;7744;52.172;10.668;2023-06-22T09:41:40;26.70;1.00
15286;DHT22;7744;52.172;10.668;2023-06-22T09:44:06;26.50;1.00
15286;DHT22;7744;52.172;10.668;2023-06-22T09:46:32;26.30;1.00
15286;DHT22;7744;52.172;10.668;2023-06-22T09:48:57;26.30;1.00
15286;DHT22;7744;52.172;10.668;2023-06-22T09:51:23;26.40;1.00
15286;DHT22;7744;52.172;10.668;2023-06-22T09:53:52;26.30;1.00
15286;DHT22;7744;52.172;10.668;2023-06-22T09:56:19;26.40;1.00
15286;DHT22;7744;52.172;10.668;2023-06-22T09:58:46;26.40;1.00
15286;DHT22;7744;52.172;10.668;2023-06-22T10:01:15;26.60;1.00
15286;DHT22;7744;52.172;10.668;2023-06-22T10:03:41;26.60;1.00
15286;DHT22;7744;52.172;10.668;2023-06-22T10:06:09;26.80;1.00
15286;DHT22;7744;52.172;10.668;2023-06-22T10:08:35;26.90;1.00
15286;DHT22;7744;52.172;10.668;2023-06-22T10:11:01;27.10;1.00
15286;DHT22;7744;52.172;10.668;2023-06-22T10:13:26;27.20;1.00
15286;DHT22;7744;52.172;10.668;2023-06-22T10:15:52;27.10;1.00
15286;DHT22;7744;52.172;10.668;2023-06-22T10:18:18;27.00;1.00
15286;DHT22;7744;52.172;10.668;2023-06-22T10:20:47;27.40;1.00
15286;DHT22;7744;52.172;10.668;2023-06-22T10:23:13;27.70;1.00
15286;DHT22;7744;52.172;10.668;2023-06-22T10:25:39;27.80;1.00
15286;DHT22;7744;52.172;10.668;2023-06-22T10:28:04;28.10;1.00
15286;DHT22;7744;52.172;10.668;2023-06-22T10:30:30;28.20;1.00
15286;DHT22;7744;52.172;10.668;2023-06-22T10:32:55;28.40;1.00
15286;DHT22;7744;52.172;10.668;2023-06-22T10:35:21;28.50;1.00
15286;DHT22;7744;52.172;10.668;2023-06-22T10:37:47;28.50;1.00
15286;DHT22;7744;52.172;10.668;2023-06-22T10:40:13;28.60;1.00
15286;DHT22;7744;52.172;10.668;2023-06-22T10:42:41;28.50;1.00
15286;DHT22;7744;52.172;10.668;2023-06-22T10:45:07;28.60;1.00
15286;DHT22;7744;52.172;10.668;2023-06-22T10:47:33;29.10;1.00
15286;DHT22;7744;52.172;10.668;2023-06-22T10:49:59;29.30;1.00
15286;DHT22;7744;52.172;10.668;2023-06-22T10:52:25;29.20;1.00
15286;DHT22;7744;52.172;10.668;2023-06-22T10:54:51;29.20;1.00
15286;DHT22;7744;52.172;10.668;2023-06-22T10:57:18;28.80;1.00
15286;DHT22;7744;52.172;10.668;2023-06-22T10:59:43;28.70;1.00
15286;DHT22;7744;52.172;10.668;2023-06-22T11:02:09;28.40;1.00
15286;DHT22;7744;52.172;10.668;2023-06-22T11:04:34;28.50;1.00
15286;DHT22;7744;52.172;10.668;2023-06-22T11:07:00;28.20;1.00
15286;DHT22;7744;52.172;10.668;2023-06-22T11:09:26;28.20;1.00
15286;DHT22;7744;52.172;10.668;2023-06-22T11:11:52;28.50;1.00
15286;DHT22;7744;52.172;10.668;2023-06-22T11:14:21;28.60;1.00
15286;DHT22;7744;52.172;10.668;2023-06-22T11:16:47;28.40;1.00
15286;DHT22;7744;52.172;10.668;2023-06-22T11:19:13;28.30;1.00
15286;DHT22;7744;52.172;10.668;2023-06-22T11:21:39;28.20;1.00
15286;DHT22;7744;52.172;10.668;2023-06-22T11:24:04;28.10;1.00
15286;DHT22;7744;52.172;10.668;2023-06-22T11:26:30;27.90;1.00
15286;DHT22;7744;52.172;10.668;2023-06-22T11:28:57;28.00;1.00
15286;DHT22;7744;52.172;10.668;2023-06-22T11:31:23;28.30;1.00
15286;DHT22;7744;52.172;10.668;2023-06-22T11:33:49;28.50;1.00
15286;DHT22;7744;52.172;10.668;2023-06-22T11:36:15;28.70;1.00
15286;DHT22;7744;52.172;10.668;2023-06-22T11:38:41;29.00;1.00
15286;DHT22;7744;52.172;10.668;2023-06-22T11:41:08;29.10;1.00
15286;DHT22;7744;52.172;10.668;2023-06-22T11:43:34;29.10;1.00
15286;DHT22;7744;52.172;10.668;2023-06-22T11:46:01;29.00;1.00
15286;DHT22;7744;52.172;10.668;2023-06-22T11:48:27;29.10;1.00
15286;DHT22;7744;52.172;10.668;2023-06-22T11:50:53;29.20;1.00
15286;DHT22;7744;52.172;10.668;2023-06-22T11:53:21;29.50;1.00
15286;DHT22;7744;52.172;10.668;2023-06-22T11:55:47;29.60;1.00
15286;DHT22;7744;52.172;10.668;2023-06-22T11:58:13;29.30;1.00
15286;DHT22;7744;52.172;10.668;2023-06-22T12:00:38;29.00;1.00
15286;DHT22;7744;52.172;10.668;2023-06-22T12:03:04;29.10;1.00
15286;DHT22;7744;52.172;10.668;2023-06-22T12:05:30;29.00;1.00
15286;DHT22;7744;52.172;10.668;2023-06-22T12:07:55;28.90;1.00
15286;DHT22;7744;52.172;10.668;2023-06-22T12:10:22;29.00;1.00
15286;DHT22;7744;52.172;10.668;2023-06-22T12:12:48;29.10;1.00
15286;DHT22;7744;52.172;10.668;2023-06-22T12:15:14;29.00;1.00
15286;DHT22;7744;52.172;10.668;2023-06-22T12:17:40;28.90;1.00
15286;DHT22;7744;52.172;10.668;2023-06-22T12:20:07;29.00;1.00
15286;DHT22;7744;52.172;10.668;2023-06-22T12:22:33;29.00;1.00
15286;DHT22;7744;52.172;10.668;2023-06-22T12:24:59;29.00;1.00
15286;DHT22;7744;52.172;10.668;2023-06-22T12:27:25;29.20;1.00
15286;DHT22;7744;52.172;10.668;2023-06-22T12:29:51;29.40;1.00
15286;DHT22;7744;52.172;10.668;2023-06-22T12:32:17;29.20;1.00
15286;DHT22;7744;52.172;10.668;2023-06-22T12:34:43;29.10;1.00
15286;DHT22;7744;52.172;10.668;2023-06-22T12:37:09;29.30;1.00
15286;DHT22;7744;52.172;10.668;2023-06-22T12:39:35;29.40;1.00
15286;DHT22;7744;52.172;10.668;2023-06-22T12:42:01;29.30;1.00
15286;DHT22;7744;52.172;10.668;2023-06-22T12:44:26;29.30;1.00
15286;DHT22;7744;52.172;10.668;2023-06-22T12:46:52;29.40;1.00
15286;DHT22;7744;52.172;10.668;2023-06-22T12:49:18;29.30;1.00
15286;DHT22;7744;52.172;10.668;2023-06-22T12:51:44;29.30;1.00
15286;DHT22;7744;52.172;10.668;2023-06-22T12:54:11;29.40;1.00
15286;DHT22;7744;52.172;10.668;2023-06-22T12:56:37;29.40;1.00
15286;DHT22;7744;52.172;10.668;2023-06-22T12:59:04;29.50;1.00
15286;DHT22;7744;52.172;10.668;2023-06-22T13:01:30;29.50;1.00
15286;DHT22;7744;52.172;10.668;2023-06-22T13:03:57;29.60;1.00
15286;DHT22;7744;52.172;10.668;2023-06-22T13:06:23;29.70;1.00
15286;DHT22;7744;52.172;10.668;2023-06-22T13:08:49;29.90;1.00
15286;DHT22;7744;52.172;10.668;2023-06-22T13:11:14;29.70;1.00
15286;DHT22;7744;52.172;10.668;2023-06-22T13:13:40;29.60;1.00
15286;DHT22;7744;52.172;10.668;2023-06-22T13:16:07;29.60;1.00
15286;DHT22;7744;52.172;10.668;2023-06-22T13:18:32;29.90;1.00
15286;DHT22;7744;52.172;10.668;2023-06-22T13:21:00;29.80;1.00
15286;DHT22;7744;52.172;10.668;2023-06-22T13:23:25;29.90;1.00
15286;DHT22;7744;52.172;10.668;2023-06-22T13:25:51;29.90;1.00
15286;DHT22;7744;52.172;10.668;2023-06-22T13:28:17;29.80;1.00
15286;DHT22;7744;52.172;10.668;2023-06-22T13:30:44;29.90;1.00
15286;DHT22;7744;52.172;10.668;2023-06-22T13:33:12;29.70;1.00
15286;DHT22;7744;52.172;10.668;2023-06-22T13:35:38;29.30;1.00
15286;DHT22;7744;52.172;10.668;2023-06-22T13:38:04;29.40;1.00
15286;DHT22;7744;52.172;10.668;2023-06-22T13:40:30;29.40;1.00
15286;DHT22;7744;52.172;10.668;2023-06-22T13:42:56;29.60;1.00
15286;DHT22;7744;52.172;10.668;2023-06-22T13:45:22;29.70;1.00
15286;DHT22;7744;52.172;10.668;2023-06-22T13:47:48;29.50;1.00
15286;DHT22;7744;52.172;10.668;2023-06-22T13:50:13;29.50;1.00
15286;DHT22;7744;52.172;10.668;2023-06-22T13:52:39;29.60;1.00
15286;DHT22;7744;52.172;10.668;2023-06-22T13:55:05;29.20;1.00
15286;DHT22;7744;52.172;10.668;2023-06-22T13:57:32;29.20;1.00
15286;DHT22;7744;52.172;10.668;2023-06-22T13:59:59;29.40;1.00
15286;DHT22;7744;52.172;10.668;2023-06-22T14:02:26;29.80;1.00
15286;DHT22;7744;52.172;10.668;2023-06-22T14:04:52;29.90;1.00
15286;DHT22;7744;52.172;10.668;2023-06-22T14:07:18;29.70;1.00
15286;DHT22;7744;52.172;10.668;2023-06-22T14:09:45;29.50;1.00
15286;DHT22;7744;52.172;10.668;2023-06-22T14:12:10;29.50;1.00
15286;DHT22;7744;52.172;10.668;2023-06-22T14:14:36;29.60;1.00
15286;DHT22;7744;52.172;10.668;2023-06-22T14:17:03;29.50;1.00
15286;DHT22;7744;52.172;10.668;2023-06-22T14:19:29;29.20;1.00
15286;DHT22;7744;52.172;10.668;2023-06-22T14:21:55;29.10;1.00
15286;DHT22;7744;52.172;10.668;2023-06-22T14:24:23;29.00;1.00
15286;DHT22;7744;52.172;10.668;2023-06-22T14:26:48;29.20;1.00
15286;DHT22;7744;52.172;10.668;2023-06-22T14:29:14;29.30;1.00
15286;DHT22;7744;52.172;10.668;2023-06-22T14:31:40;29.40;1.00
15286;DHT22;7744;52.172;10.668;2023-06-22T14:34:06;29.40;1.00
15286;DHT22;7744;52.172;10.668;2023-06-22T14:36:32;29.20;1.00
15286;DHT22;7744;52.172;10.668;2023-06-22T14:38:57;29.10;1.00
15286;DHT22;7744;52.172;10.668;2023-06-22T14:41:23;28.90;1.00
15286;DHT22;7744;52.172;10.668;2023-06-22T14:43:51;28.70;1.00
15286;DHT22;7744;52.172;10.668;2023-06-22T14:46:18;28.60;1.00
15286;DHT22;7744;52.172;10.668;2023-06-22T14:48:44;28.60;1.00
15286;DHT22;7744;52.172;10.668;2023-06-22T14:51:11;28.70;1.00
15286;DHT22;7744;52.172;10.668;2023-06-22T14:53:37;28.80;1.00
15286;DHT22;7744;52.172;10.668;2023-06-22T14:56:03;28.60;1.00
15286;DHT22;7744;52.172;10.668;2023-06-22T14:58:31;28.60;1.00
15286;DHT22;7744;52.172;10.668;2023-06-22T15:00:59;28.60;1.00
15286;DHT22;7744;52.172;10.668;2023-06-22T15:03:25;28.60;1.00
15286;DHT22;7744;52.172;10.668;2023-06-22T15:05:54;28.60;1.00
15286;DHT22;7744;52.172;10.668;2023-06-22T15:08:20;28.50;1.00
15286;DHT22;7744;52.172;10.668;2023-06-22T15:10:46;28.50;1.00
15286;DHT22;7744;52.172;10.668;2023-06-22T15:13:12;28.50;1.00
15286;DHT22;7744;52.172;10.668;2023-06-22T15:15:38;28.40;1.00
15286;DHT22;7744;52.172;10.668;2023-06-22T15:18:04;28.30;1.00
15286;DHT22;7744;52.172;10.668;2023-06-22T15:20:30;28.20;1.00
15286;DHT22;7744;52.172;10.668;2023-06-22T15:22:57;28.20;1.00
15286;DHT22;7744;52.172;10.668;2023-06-22T15:25:23;28.10;1.00
15286;DHT22;7744;52.172;10.668;2023-06-22T15:27:48;28.10;1.00
15286;DHT22;7744;52.172;10.668;2023-06-22T15:30:14;28.00;1.00
15286;DHT22;7744;52.172;10.668;2023-06-22T15:32:44;27.80;1.00
15286;DHT22;7744;52.172;10.668;2023-06-22T15:35:14;27.70;1.00
15286;DHT22;7744;52.172;10.668;2023-06-22T15:37:42;27.50;1.00
15286;DHT22;7744;52.172;10.668;2023-06-22T15:40:08;27.40;1.00
15286;DHT22;7744;52.172;10.668;2023-06-22T15:42:35;27.30;1.00
15286;DHT22;7744;52.172;10.668;2023-06-22T15:45:00;27.20;1.00
15286;DHT22;7744;52.172;10.668;2023-06-22T15:47:26;27.10;1.00
15286;DHT22;7744;52.172;10.668;2023-06-22T15:49:52;27.00;1.00
15286;DHT22;7744;52.172;10.668;2023-06-22T15:52:18;26.90;1.00
15286;DHT22;7744;52.172;10.668;2023-06-22T15:54:48;26.80;1.00